Leuven, Belgium
Current Conditions -  °F | °C
As of 5:20 AM on Saturday 20 Dec 2014 (Local Time) from EBBR Reporting Station
Clear Clear  
Wind Chill: 33°   Ceiling: Unl
Heat Index: 41°   Visibility: 6mi
Dew Point: 36°   Wind: 16mph
Humidity: 81%   Direction: 250°WSW
Pressure: 30.21"   Gusts: NA
Location:  50.88°N, 4.7°E
Report Text: EBBR 200420Z 25014KT CAVOK 05/02 Q1023 NOSIG
Loading
Personal Weather Stations






























Interactive Weather Map New forecast layout! Learn more

10-Day Weather Forecast

Advertisements
Track Severe Weather on mobile